createdAt,value
2022-08-28T00:19:53.223Z,100278.09
2022-08-28T00:34:37.441Z,100272.27
2022-08-28T01:20:06.047Z,100277.40
2022-08-28T01:34:58.017Z,100292.84
2022-08-28T01:49:49.834Z,100281.94
2022-08-28T02:04:43.344Z,100291.87
2022-08-28T02:19:35.435Z,100304.28
2022-08-28T02:34:26.242Z,100296.47
2022-08-28T02:49:17.872Z,100295.48
2022-08-28T03:04:10.159Z,100288.10
2022-08-28T03:19:02.191Z,100294.19
2022-08-28T03:48:46.289Z,100307.09
2022-08-28T04:03:38.744Z,100316.20
2022-08-28T04:18:31.660Z,100310.98
2022-08-28T04:33:23.821Z,100319.45
2022-08-28T04:48:15.596Z,100330.27
2022-08-28T05:03:06.716Z,100332.52
2022-08-28T05:17:59.042Z,100342.42
2022-08-28T05:32:50.754Z,100346.59
2022-08-28T05:47:42.631Z,100358.05
2022-08-28T06:02:36.276Z,100361.88
2022-08-28T06:17:31.476Z,100370.03
2022-08-28T06:32:23.947Z,100383.67
2022-08-28T06:47:15.389Z,100393.18
2022-08-28T07:02:07.982Z,100402.00
2022-08-28T07:16:59.539Z,100414.12
2022-08-28T07:31:51.516Z,100417.86
2022-08-28T07:46:43.132Z,100425.97
2022-08-28T08:01:37.650Z,100441.74
2022-08-28T08:16:31.618Z,100454.45
2022-08-28T08:31:28.594Z,100464.17
2022-08-28T08:46:24.125Z,100471.56
2022-08-28T09:01:34.294Z,100488.16
2022-08-28T09:16:31.479Z,100498.78
2022-08-28T09:31:29.183Z,100493.18
2022-08-28T09:46:25.317Z,100500.08
2022-08-28T10:01:28.056Z,100491.52
2022-08-28T10:16:27.772Z,100501.06
2022-08-28T10:31:35.436Z,100498.25
2022-08-28T10:46:47.549Z,100485.16
2022-08-28T11:17:01.018Z,100475.42
2022-08-28T11:31:56.345Z,100471.91
2022-08-28T11:46:49.592Z,100481.08
2022-08-28T12:01:41.561Z,100477.36
2022-08-28T12:17:00.942Z,100473.12
2022-08-28T12:32:13.353Z,100456.33
2022-08-28T12:47:09.977Z,100461.16
2022-08-28T13:02:04.718Z,100436.59
2022-08-28T13:17:01.222Z,100426.27
2022-08-28T13:31:56.213Z,100416.39
2022-08-28T13:46:52.342Z,100412.72
2022-08-28T14:02:03.720Z,100402.98
2022-08-28T14:16:59.122Z,100399.16
2022-08-28T14:31:52.490Z,100380.51
2022-08-28T14:46:45.251Z,100373.20
2022-08-28T15:01:40.641Z,100367.08
2022-08-28T15:16:31.619Z,100363.94
2022-08-28T15:31:25.627Z,100358.23
2022-08-28T15:46:17.241Z,100347.56
2022-08-28T16:01:06.725Z,100349.47
2022-08-28T16:15:57.540Z,100345.42
2022-08-28T16:30:49.061Z,100341.59
2022-08-28T16:45:41.381Z,100328.86
2022-08-28T17:00:32.950Z,100339.48
2022-08-28T17:30:49.691Z,100343.34
2022-08-28T17:45:41.117Z,100353.83
2022-08-28T18:00:35.763Z,100364.20
2022-08-28T18:15:26.723Z,100378.52
2022-08-28T19:00:52.968Z,100424.77
2022-08-28T19:15:44.552Z,100435.91
2022-08-28T19:30:35.810Z,100453.66
2022-08-28T19:45:26.636Z,100455.95
2022-08-28T20:15:11.018Z,100481.10
2022-08-28T20:30:07.148Z,100480.70
2022-08-28T20:44:53.558Z,100487.03
2022-08-28T20:59:45.591Z,100493.28
2022-08-28T21:14:37.139Z,100499.30
2022-08-28T21:29:28.787Z,100513.00
2022-08-28T21:59:11.185Z,100514.30
2022-08-28T22:28:54.998Z,100523.78
2022-08-28T22:43:49.929Z,100540.08
2022-08-28T22:58:42.625Z,100541.79
2022-08-28T23:13:33.710Z,100548.02
2022-08-28T23:28:24.755Z,100544.31
2022-08-28T23:43:16.198Z,100544.72
2022-08-28T23:58:07.504Z,100549.76
